Time;durP1;ratioP1;P1;durP2;ratioP2;P2;SDS_P1;SDS_P2;PMS_P1;PMS_P2;Temp;Humidity;BMP_temperature;BMP_pressure;BME280_temperature;BME280_humidity;BME280_pressure;Samples;Min_cycle;Max_cycle;Signal;HPM_P1;HPM_P2
2022/11/23 00:00:24;;;;;;;39.38;16.25;;;;;;;7.36;100.00;99408.00;4913128;29;20090;-35
2022/11/23 00:02:53;;;;;;;30.95;15.50;;;;;;;7.37;100.00;99412.31;4912442;29;20163;-35
2022/11/23 00:05:18;;;;;;;42.97;17.13;;;;;;;7.38;100.00;99411.31;4912882;29;20080;-34
2022/11/23 00:07:43;;;;;;;32.58;15.82;;;;;;;7.37;100.00;99409.66;4914215;29;20398;-35
2022/11/23 00:10:09;;;;;;;36.90;15.98;;;;;;;7.37;100.00;99410.50;4914696;29;20131;-37
2022/11/23 00:12:34;;;;;;;39.42;17.08;;;;;;;7.38;100.00;99416.69;4907532;29;20077;-36
2022/11/23 00:14:59;;;;;;;32.88;15.75;;;;;;;7.38;100.00;99419.34;4899963;29;20036;-36
2022/11/23 00:17:25;;;;;;;32.88;15.27;;;;;;;7.37;100.00;99418.53;4912882;29;20035;-35
2022/11/23 00:19:50;;;;;;;40.40;15.80;;;;;;;7.38;100.00;99427.38;4914593;29;20040;-36
2022/11/23 00:22:15;;;;;;;36.95;15.05;;;;;;;7.39;100.00;99418.31;4914994;29;20121;-36
2022/11/23 00:24:41;;;;;;;32.30;14.35;;;;;;;7.38;100.00;99422.84;4914868;29;20039;-35
2022/11/23 00:27:06;;;;;;;36.38;15.18;;;;;;;7.39;100.00;99426.34;4909819;29;20403;-38
2022/11/23 00:29:31;;;;;;;32.92;13.48;;;;;;;7.39;100.00;99431.69;4909833;29;20423;-36
2022/11/23 00:31:57;;;;;;;31.40;13.98;;;;;;;7.36;100.00;99416.84;4914372;29;20531;-37
2022/11/23 00:34:22;;;;;;;24.55;12.48;;;;;;;7.37;100.00;99420.34;4897347;29;20036;-35
2022/11/23 00:36:47;;;;;;;26.50;13.02;;;;;;;7.37;100.00;99423.03;4897182;29;20064;-38
2022/11/23 00:39:12;;;;;;;35.35;12.80;;;;;;;7.36;100.00;99429.41;4908971;29;20057;-36
2022/11/23 00:41:38;;;;;;;26.13;12.85;;;;;;;7.35;100.00;99441.97;4910850;29;20040;-35
2022/11/23 00:44:03;;;;;;;38.47;12.32;;;;;;;7.36;100.00;99448.16;4919772;29;20127;-35
2022/11/23 00:46:28;;;;;;;25.38;12.13;;;;;;;7.36;100.00;99445.47;4913602;29;20084;-35
2022/11/23 00:48:55;;;;;;;26.83;11.52;;;;;;;7.35;100.00;99439.31;4914902;29;20099;-44
2022/11/23 00:51:32;;;;;;;28.83;12.02;;;;;;;7.37;100.00;99433.75;4909403;29;20747;-43
2022/11/23 00:53:58;;;;;;;22.08;11.85;;;;;;;7.30;100.00;99424.84;4899222;29;20028;-43
2022/11/23 00:56:24;;;;;;;37.70;14.68;;;;;;;7.25;100.00;99433.47;4914071;29;20522;-42
2022/11/23 00:58:50;;;;;;;37.50;15.93;;;;;;;7.21;100.00;99429.50;4914427;29;20119;-41
2022/11/23 01:01:16;;;;;;;39.08;17.20;;;;;;;7.19;100.00;99435.06;4912695;29;20412;-41
2022/11/23 01:03:45;;;;;;;35.33;16.92;;;;;;;7.18;100.00;99436.06;4920738;29;20151;-37
2022/11/23 01:06:16;;;;;;;48.00;19.27;;;;;;;7.14;100.00;99440.19;4913968;29;20028;-38
2022/11/23 01:08:42;;;;;;;42.90;17.77;;;;;;;7.17;100.00;99437.09;4914358;29;20146;-35
2022/11/23 01:11:10;;;;;;;43.88;18.48;;;;;;;7.17;100.00;99449.66;4914822;29;20036;-35
2022/11/23 01:13:37;;;;;;;34.22;17.65;;;;;;;7.17;100.00;99438.97;4910548;29;20467;-36
2022/11/23 01:16:02;;;;;;;40.63;17.92;;;;;;;7.17;100.00;99439.78;4911778;29;20445;-34
2022/11/23 01:18:28;;;;;;;42.72;18.27;;;;;;;7.22;100.00;99442.72;4917319;29;20119;-35
2022/11/23 01:20:53;;;;;;;47.10;18.67;;;;;;;7.19;100.00;99450.31;4912788;29;20479;-37
2022/11/23 01:23:19;;;;;;;43.78;18.65;;;;;;;7.20;100.00;99441.25;4913413;29;20036;-35
2022/11/23 01:25:44;;;;;;;43.90;18.40;;;;;;;7.20;100.00;99443.91;4914531;29;20506;-35
2022/11/23 01:28:09;;;;;;;42.72;17.88;;;;;;;7.19;100.00;99442.28;4905333;29;20032;-36
2022/11/23 01:30:35;;;;;;;38.30;17.25;;;;;;;7.20;100.00;99450.09;4913368;29;20545;-35
2022/11/23 01:33:03;;;;;;;43.70;16.92;;;;;;;7.22;100.00;99448.06;4906813;29;20053;-35
2022/11/23 01:35:29;;;;;;;32.95;14.57;;;;;;;7.22;100.00;99448.06;4896430;29;20032;-35
2022/11/23 01:37:55;;;;;;;36.97;16.25;;;;;;;7.22;100.00;99445.38;4912184;29;20036;-34
2022/11/23 01:40:20;;;;;;;40.25;15.45;;;;;;;7.23;100.00;99456.91;4912623;29;20070;-35
2022/11/23 01:42:55;;;;;;;40.42;15.82;;;;;;;7.25;100.00;99460.22;4908835;29;20040;-36
2022/11/23 01:45:37;;;;;;;33.38;15.30;;;;;;;7.27;100.00;99455.50;4913340;29;20099;-35
2022/11/23 01:48:07;;;;;;;35.05;14.20;;;;;;;7.25;100.00;99458.38;4913948;29;20028;-35
2022/11/23 01:50:33;;;;;;;39.58;13.88;;;;;;;7.24;100.00;99462.09;4907734;29;20029;-34
2022/11/23 01:52:58;;;;;;;34.55;12.63;;;;;;;7.25;100.00;99461.03;4907017;29;20064;-36
2022/11/23 01:55:25;;;;;;;30.83;13.15;;;;;;;7.26;100.00;99456.50;4904650;29;20040;-34
2022/11/23 01:57:50;;;;;;;38.05;13.07;;;;;;;7.25;100.00;99461.03;4928097;29;20541;-35
2022/11/23 02:00:16;;;;;;;36.78;12.85;;;;;;;7.26;100.00;99468.03;4913211;29;20031;-35
2022/11/23 02:02:45;;;;;;;27.38;12.50;;;;;;;7.25;100.00;99463.72;4913242;29;20043;-35
2022/11/23 02:05:11;;;;;;;39.10;12.40;;;;;;;7.24;100.00;99456.72;4898510;29;20087;-36
2022/11/23 02:07:37;;;;;;;36.03;11.05;;;;;;;7.26;100.00;99464.53;4895356;29;20036;-34
2022/11/23 02:10:02;;;;;;;32.17;10.27;;;;;;;7.28;100.00;99467.84;4895147;29;20218;-35
2022/11/23 02:12:28;;;;;;;37.22;9.50;;;;;;;7.29;100.00;99463.31;4903931;29;20067;-36
2022/11/23 02:14:53;;;;;;;26.98;8.30;;;;;;;7.29;100.00;99466.00;4908253;29;20111;-36
2022/11/23 02:17:20;;;;;;;24.77;8.23;;;;;;;7.30;100.00;99470.34;4913111;29;20036;-34
2022/11/23 02:20:09;;;;;;;20.77;8.05;;;;;;;7.28;100.00;99469.72;4902070;29;20076;-35
2022/11/23 02:22:49;;;;;;;32.42;9.15;;;;;;;7.25;100.00;99461.03;4913356;29;20036;-37
2022/11/23 02:25:39;;;;;;;31.65;8.50;;;;;;;7.25;100.00;99460.22;4913490;29;20548;-34
2022/11/23 02:28:05;;;;;;;35.40;8.65;;;;;;;7.22;100.00;99468.66;4913431;29;20507;-36
2022/11/23 02:30:32;;;;;;;23.83;7.75;;;;;;;7.23;100.00;99470.28;4896106;29;20027;-36
2022/11/23 02:32:57;;;;;;;32.70;8.73;;;;;;;7.19;100.00;99469.84;4893708;29;20044;-35
2022/11/23 02:35:23;;;;;;;24.38;8.00;;;;;;;7.20;100.00;99471.50;4913355;29;20039;-35
2022/11/23 02:37:49;;;;;;;25.00;9.10;;;;;;;7.17;100.00;99460.38;4912974;29;20080;-34
2022/11/23 02:40:30;;;;;;;25.55;9.65;;;;;;;7.16;100.00;99464.91;4898826;29;20035;-33
2022/11/23 02:42:56;;;;;;;28.88;10.85;;;;;;;7.14;100.00;99466.13;4914067;29;20420;-37
2022/11/23 02:45:40;;;;;;;32.00;10.63;;;;;;;7.13;100.00;99464.44;4915194;29;20035;-35
2022/11/23 02:48:06;;;;;;;29.45;10.43;;;;;;;7.11;100.00;99471.81;4918027;29;20081;-35
2022/11/23 02:50:31;;;;;;;27.02;12.00;;;;;;;7.10;100.00;99468.31;4916384;29;20186;-35
2022/11/23 02:52:56;;;;;;;30.40;12.68;;;;;;;7.08;100.00;99467.69;4915613;29;20028;-36
2022/11/23 02:55:22;;;;;;;35.75;13.02;;;;;;;7.10;100.00;99473.69;4916225;29;20044;-35
2022/11/23 02:57:47;;;;;;;33.75;15.32;;;;;;;7.10;100.00;99481.72;4913603;29;20044;-35
2022/11/23 03:00:13;;;;;;;35.83;16.38;;;;;;;7.14;100.00;99482.16;4915703;29;20070;-34
2022/11/23 03:02:38;;;;;;;33.38;15.98;;;;;;;7.14;100.00;99483.00;4901221;29;20157;-36
2022/11/23 03:05:05;;;;;;;43.88;17.08;;;;;;;7.17;100.00;99476.44;4897884;29;20036;-37
2022/11/23 03:07:30;;;;;;;37.95;18.70;;;;;;;7.16;100.00;99488.97;4916279;29;20032;-35
2022/11/23 03:09:55;;;;;;;40.50;19.35;;;;;;;7.19;100.00;99480.56;4916003;29;20047;-36
2022/11/23 03:12:21;;;;;;;39.17;19.08;;;;;;;7.21;100.00;99477.69;4921727;29;20085;-35
2022/11/23 03:14:46;;;;;;;36.65;18.23;;;;;;;7.22;100.00;99474.00;4913072;29;20076;-36
2022/11/23 03:17:11;;;;;;;34.58;17.90;;;;;;;7.23;100.00;99476.47;4917598;29;20028;-37
2022/11/23 03:19:37;;;;;;;33.78;17.85;;;;;;;7.24;100.00;99488.00;4916606;29;20036;-38
2022/11/23 03:22:03;;;;;;;32.58;16.42;;;;;;;7.26;100.00;99475.25;4926167;29;20039;-34
2022/11/23 03:24:28;;;;;;;35.78;17.73;;;;;;;7.28;100.00;99483.09;4916444;29;20451;-34
2022/11/23 03:26:53;;;;;;;34.17;16.35;;;;;;;7.30;100.00;99483.72;4908213;29;20033;-34
2022/11/23 03:29:19;;;;;;;33.03;17.20;;;;;;;7.32;100.00;99489.69;4912064;29;20135;-35
2022/11/23 03:31:44;;;;;;;34.95;16.92;;;;;;;7.36;100.00;99485.63;4892703;29;20047;-35
2022/11/23 03:34:10;;;;;;;32.92;17.30;;;;;;;7.35;100.00;99492.00;4905535;29;20035;-35
2022/11/23 03:36:35;;;;;;;28.83;16.77;;;;;;;7.39;100.00;99485.22;4916436;29;20051;-34
2022/11/23 03:39:00;;;;;;;33.17;16.30;;;;;;;7.40;100.00;99489.59;4914425;29;20111;-35
2022/11/23 03:41:26;;;;;;;31.15;16.15;;;;;;;7.40;100.00;99478.88;4913436;29;20499;-34
2022/11/23 03:43:51;;;;;;;33.35;15.90;;;;;;;7.42;100.00;99492.88;4903047;29;20044;-35
2022/11/23 03:46:16;;;;;;;33.35;16.25;;;;;;;7.43;100.00;99486.50;4919862;29;20031;-36
2022/11/23 03:48:42;;;;;;;28.73;15.00;;;;;;;7.44;100.00;99490.81;4914229;29;20156;-36
2022/11/23 03:51:07;;;;;;;35.13;14.75;;;;;;;7.45;100.00;99473.72;4913123;29;20131;-34
2022/11/23 03:53:32;;;;;;;36.10;15.05;;;;;;;7.45;100.00;99482.63;4914981;29;20031;-35
2022/11/23 03:55:58;;;;;;;30.90;14.23;;;;;;;7.47;100.00;99485.09;4912541;29;20024;-35
2022/11/23 03:58:23;;;;;;;35.75;14.05;;;;;;;7.50;100.00;99489.22;4898540;29;20094;-36
2022/11/23 04:00:48;;;;;;;38.47;15.27;;;;;;;7.51;100.00;99482.88;4915124;29;20055;-38
2022/11/23 04:03:14;;;;;;;28.13;14.20;;;;;;;7.52;100.00;99485.31;4910728;29;20024;-36
2022/11/23 04:05:39;;;;;;;25.08;13.93;;;;;;;7.51;100.00;99483.69;4899888;29;20028;-36
2022/11/23 04:08:04;;;;;;;28.02;14.40;;;;;;;7.52;100.00;99484.50;4915510;29;20046;-35
2022/11/23 04:10:30;;;;;;;26.38;13.30;;;;;;;7.52;100.00;99473.78;4915918;29;20028;-36
2022/11/23 04:12:55;;;;;;;36.97;14.25;;;;;;;7.53;100.00;99484.31;4916978;29;20036;-36
2022/11/23 04:15:20;;;;;;;25.20;12.35;;;;;;;7.56;100.00;99475.06;4910655;29;20577;-36
2022/11/23 04:17:46;;;;;;;27.85;12.98;;;;;;;7.54;100.00;99469.06;4912858;29;20068;-38
2022/11/23 04:20:12;;;;;;;23.48;12.15;;;;;;;7.55;100.00;99474.22;4898217;29;20480;-35
2022/11/23 04:22:37;;;;;;;25.63;13.38;;;;;;;7.57;100.00;99480.22;4914409;29;20043;-34
2022/11/23 04:25:03;;;;;;;27.05;12.70;;;;;;;7.58;100.00;99473.84;4915121;29;20111;-36
2022/11/23 04:27:28;;;;;;;22.13;12.02;;;;;;;7.59;100.00;99472.00;4913413;29;20155;-34
2022/11/23 04:29:54;;;;;;;25.50;11.55;;;;;;;7.60;100.00;99485.16;4914630;29;20455;-36
2022/11/23 04:32:19;;;;;;;26.08;10.90;;;;;;;7.61;100.00;99473.47;4904819;29;20059;-35
2022/11/23 04:34:44;;;;;;;29.42;11.45;;;;;;;7.62;100.00;99471.59;4906276;29;20032;-35
2022/11/23 04:37:10;;;;;;;18.10;10.40;;;;;;;7.62;100.00;99464.38;4914795;29;20039;-34
2022/11/23 04:39:35;;;;;;;23.20;10.07;;;;;;;7.60;100.00;99471.78;4912321;29;20150;-37
2022/11/23 04:42:01;;;;;;;25.00;9.77;;;;;;;7.60;100.00;99468.28;4912415;29;20698;-35
2022/11/23 04:44:26;;;;;;;22.40;10.35;;;;;;;7.60;100.00;99465.59;4919932;29;20172;-34
2022/11/23 04:46:51;;;;;;;28.42;8.38;;;;;;;7.59;100.00;99463.97;4895682;29;20057;-37
2022/11/23 04:49:17;;;;;;;23.17;8.45;;;;;;;7.57;100.00;99471.34;4898013;29;20059;-34
2022/11/23 04:51:42;;;;;;;19.92;8.85;;;;;;;7.59;100.00;99466.66;4880251;29;20036;-35
2022/11/23 04:54:08;;;;;;;17.25;9.05;;;;;;;7.59;100.00;99463.97;4904404;29;20115;-35
2022/11/23 04:56:33;;;;;;;27.17;9.48;;;;;;;7.57;100.00;99472.19;4914124;29;20507;-35
2022/11/23 04:58:58;;;;;;;15.98;8.57;;;;;;;7.55;100.00;99473.41;4898199;29;20094;-36
2022/11/23 05:01:24;;;;;;;22.95;8.55;;;;;;;7.54;100.00;99477.09;4909594;29;20088;-37
2022/11/23 05:03:49;;;;;;;23.73;7.55;;;;;;;7.52;100.00;99463.91;4911739;29;20502;-34
2022/11/23 05:06:14;;;;;;;21.85;8.45;;;;;;;7.54;100.00;99472.56;4913259;29;20032;-35
2022/11/23 05:08:41;;;;;;;24.65;9.10;;;;;;;7.55;100.00;99478.75;4914260;29;20082;-35
2022/11/23 05:11:06;;;;;;;16.33;7.55;;;;;;;7.52;100.00;99474.63;4915889;29;20468;-34
2022/11/23 05:13:32;;;;;;;24.65;8.00;;;;;;;7.54;100.00;99477.09;4914292;29;20162;-35
2022/11/23 05:15:57;;;;;;;18.98;6.72;;;;;;;7.53;100.00;99475.44;4914367;29;20041;-34
2022/11/23 05:18:22;;;;;;;18.75;7.45;;;;;;;7.53;100.00;99475.44;4896693;29;20028;-34
2022/11/23 05:20:48;;;;;;;23.50;7.65;;;;;;;7.51;100.00;99477.50;4911834;29;20036;-35
2022/11/23 05:23:13;;;;;;;22.30;7.22;;;;;;;7.51;100.00;99462.25;4912393;29;20050;-38
2022/11/23 05:25:39;;;;;;;20.10;7.38;;;;;;;7.48;100.00;99471.50;4911928;29;20043;-36
2022/11/23 05:28:04;;;;;;;18.23;7.05;;;;;;;7.47;100.00;99477.88;4912177;29;20032;-34
2022/11/23 05:30:30;;;;;;;25.85;7.32;;;;;;;7.48;100.00;99465.34;4911429;29;20071;-35
2022/11/23 05:33:01;;;;;;;20.25;7.10;;;;;;;7.43;100.00;99459.75;4912107;29;20056;-38
2022/11/23 05:35:27;;;;;;;24.92;8.00;;;;;;;7.42;100.00;99468.78;4912720;29;20032;-35
2022/11/23 05:37:53;;;;;;;24.40;7.57;;;;;;;7.42;100.00;99463.41;4911586;29;20464;-35
2022/11/23 05:40:18;;;;;;;19.42;7.53;;;;;;;7.39;100.00;99466.50;4910617;29;20060;-37
2022/11/23 05:42:43;;;;;;;31.98;8.05;;;;;;;7.39;100.00;99466.50;4911919;29;20052;-37
2022/11/23 05:45:09;;;;;;;18.48;7.15;;;;;;;7.37;100.00;99472.06;4914916;29;20078;-36
2022/11/23 05:47:34;;;;;;;19.10;7.80;;;;;;;7.37;100.00;99469.38;4915512;29;20138;-35
2022/11/23 05:49:59;;;;;;;23.75;8.38;;;;;;;7.41;100.00;99477.84;4910609;29;20040;-35
2022/11/23 05:52:25;;;;;;;22.23;8.35;;;;;;;7.43;100.00;99473.13;4911457;29;20038;-36
2022/11/23 05:54:50;;;;;;;28.42;8.52;;;;;;;7.48;100.00;99468.00;4912275;29;20043;-35
2022/11/23 05:57:16;;;;;;;26.25;7.53;;;;;;;7.44;100.00;99477.44;4904314;29;20028;-35
2022/11/23 05:59:42;;;;;;;24.70;6.93;;;;;;;7.43;100.00;99465.09;4906635;29;20040;-37
2022/11/23 06:02:07;;;;;;;19.02;6.65;;;;;;;7.41;100.00;99467.13;4905419;29;20083;-37
2022/11/23 06:04:33;;;;;;;21.92;6.90;;;;;;;7.46;100.00;99460.16;4909575;29;20435;-38
2022/11/23 06:06:59;;;;;;;23.27;6.03;;;;;;;7.40;100.00;99454.78;4904142;29;20403;-36
2022/11/23 06:09:26;;;;;;;23.60;6.35;;;;;;;7.44;100.00;99461.38;4908889;29;20071;-35
2022/11/23 06:11:51;;;;;;;26.60;6.13;;;;;;;7.42;100.00;99471.44;4897565;29;20040;-35
2022/11/23 06:14:17;;;;;;;27.33;5.95;;;;;;;7.31;100.00;99470.13;4914304;29;20044;-35
2022/11/23 06:16:42;;;;;;;22.08;5.82;;;;;;;7.25;100.00;99463.72;4897385;29;20406;-35
2022/11/23 06:19:07;;;;;;;18.30;6.28;;;;;;;7.25;100.00;99476.28;4904748;29;20318;-36
2022/11/23 06:21:33;;;;;;;15.75;5.15;;;;;;;7.28;100.00;99483.09;4900635;29;20417;-35
2022/11/23 06:23:58;;;;;;;22.85;6.00;;;;;;;7.21;100.00;99481.19;4902718;29;20115;-36
2022/11/23 06:26:24;;;;;;;20.70;5.07;;;;;;;7.20;100.00;99471.50;4905485;29;20032;-35
2022/11/23 06:28:49;;;;;;;24.00;5.93;;;;;;;7.17;100.00;99476.44;4906685;29;20033;-36
2022/11/23 06:31:15;;;;;;;19.48;4.68;;;;;;;7.06;100.00;99480.44;4911730;29;20531;-37
2022/11/23 06:33:40;;;;;;;17.52;4.97;;;;;;;6.98;100.00;99477.91;4915859;29;20058;-34
2022/11/23 06:36:06;;;;;;;25.67;4.75;;;;;;;6.93;100.00;99483.84;4915433;29;20088;-38
2022/11/23 06:38:31;;;;;;;19.95;4.45;;;;;;;6.88;100.00;99488.09;4917194;29;20068;-37
2022/11/23 06:41:00;;;;;;;14.95;4.15;;;;;;;6.83;100.00;99477.97;4916892;29;20036;-38
2022/11/23 06:43:26;;;;;;;21.20;3.97;;;;;;;6.79;100.00;99485.56;4900093;29;20045;-35
2022/11/23 06:45:53;;;;;;;23.27;4.07;;;;;;;6.73;100.00;99480.94;4906893;29;20028;-36
2022/11/23 06:48:18;;;;;;;23.10;3.35;;;;;;;6.71;100.00;99480.31;4901944;29;20171;-37
2022/11/23 06:50:43;;;;;;;25.95;3.85;;;;;;;6.71;100.00;99485.66;4927902;29;20436;-34
2022/11/23 06:53:11;;;;;;;20.13;3.20;;;;;;;6.71;100.00;99482.97;4901871;29;20428;-37
2022/11/23 06:55:37;;;;;;;;;;;;;;;6.66;100.00;99488.09;4905289;29;20116;-36
2022/11/23 06:58:02;;;;;;;32.30;3.45;;;;;;;6.62;100.00;99497.50;4909827;29;20391;-34
2022/11/23 07:00:28;;;;;;;23.17;3.13;;;;;;;6.59;100.00;99504.06;4907400;29;20477;-38
2022/11/23 07:02:54;;;;;;;30.90;3.30;;;;;;;6.59;100.00;99511.25;4916115;29;20055;-35
2022/11/23 07:05:20;;;;;;;18.63;2.80;;;;;;;6.58;100.00;99512.25;4915108;29;20058;-37
2022/11/23 07:07:45;;;;;;;24.65;3.38;;;;;;;6.59;100.00;99504.06;4911474;29;20028;-35
2022/11/23 07:10:12;;;;;;;26.73;3.38;;;;;;;6.60;100.00;99507.53;4897351;29;20040;-36
2022/11/23 07:12:37;;;;;;;30.40;2.97;;;;;;;6.60;100.00;99503.03;4910880;29;20455;-37
2022/11/23 07:15:03;;;;;;;24.70;3.00;;;;;;;6.63;100.00;99509.00;4913325;29;20061;-37
2022/11/23 07:17:28;;;;;;;27.38;3.65;;;;;;;6.69;100.00;99517.13;4914736;29;20040;-35
2022/11/23 07:19:53;;;;;;;20.20;3.13;;;;;;;6.72;100.00;99506.03;4916156;29;20032;-35
2022/11/23 07:22:19;;;;;;;15.05;2.70;;;;;;;6.75;100.00;99513.69;4916089;29;20455;-37
2022/11/23 07:24:44;;;;;;;28.17;3.38;;;;;;;6.80;100.00;99513.13;4914442;29;20051;-35
2022/11/23 07:27:09;;;;;;;30.60;3.17;;;;;;;6.83;100.00;99512.72;4907647;29;20032;-35
2022/11/23 07:29:35;;;;;;;20.23;4.10;;;;;;;6.87;100.00;99513.16;4898155;29;20314;-36
2022/11/23 07:32:00;;;;;;;23.65;2.90;;;;;;;6.90;100.00;99505.63;4912757;29;20396;-37
2022/11/23 07:34:28;;;;;;;29.30;2.95;;;;;;;6.91;100.00;99511.78;4915928;29;20395;-35
2022/11/23 07:36:54;;;;;;;;;;;;;;;6.91;100.00;99520.63;4897373;29;20078;-37
2022/11/23 07:39:19;;;;;;;18.40;3.08;;;;;;;6.99;100.00;99519.69;4902758;29;20382;-37
2022/11/23 07:41:47;;;;;;;26.42;2.90;;;;;;;6.96;100.00;99525.41;4906606;29;20036;-38
2022/11/23 07:44:13;;;;;;;22.45;2.83;;;;;;;6.97;100.00;99524.38;4909208;29;20036;-35
2022/11/23 07:46:38;;;;;;;20.85;3.47;;;;;;;6.98;100.00;99531.41;4910800;29;20079;-36
2022/11/23 07:49:04;;;;;;;16.55;2.90;;;;;;;6.99;100.00;99536.56;4907751;29;20029;-37
2022/11/23 07:51:29;;;;;;;23.80;3.05;;;;;;;7.02;100.00;99543.38;4907846;29;20130;-36
2022/11/23 07:53:55;;;;;;;24.40;2.90;;;;;;;7.03;100.00;99542.38;4908081;29;20091;-37
2022/11/23 07:56:20;;;;;;;27.73;3.83;;;;;;;7.04;100.00;99538.66;4890698;29;20071;-35
2022/11/23 07:58:45;;;;;;;20.88;3.25;;;;;;;7.11;100.00;99541.38;4911272;29;20119;-36
2022/11/23 08:01:18;;;;;;;20.48;3.83;;;;;;;7.09;100.00;99541.59;4908584;29;20043;-34
2022/11/23 08:03:44;;;;;;;22.83;3.53;;;;;;;7.12;100.00;99551.91;4906638;29;20445;-35
2022/11/23 08:06:10;;;;;;;28.55;3.17;;;;;;;7.11;100.00;99550.25;4909493;29;20047;-36
2022/11/23 08:08:36;;;;;;;27.25;4.25;;;;;;;7.16;100.00;99555.88;4907278;29;20122;-37
2022/11/23 08:11:01;;;;;;;22.65;4.53;;;;;;;7.14;100.00;99557.91;4892750;29;20212;-37
2022/11/23 08:13:27;;;;;;;19.05;2.90;;;;;;;7.10;100.00;99551.25;4892554;29;20123;-35
2022/11/23 08:15:52;;;;;;;17.77;3.67;;;;;;;7.05;100.00;99559.03;4904890;29;20048;-35
2022/11/23 08:18:17;;;;;;;27.23;3.72;;;;;;;7.04;100.00;99565.41;4903887;29;20038;-36
2022/11/23 08:20:42;;;;;;;26.15;3.63;;;;;;;7.05;100.00;99556.34;4904164;29;20129;-34
2022/11/23 08:23:08;;;;;;;23.60;3.40;;;;;;;7.07;100.00;99551.66;4904465;29;20070;-35
2022/11/23 08:25:33;;;;;;;22.92;3.20;;;;;;;7.08;100.00;99547.13;4905924;29;20111;-35
2022/11/23 08:28:01;;;;;;;22.00;3.30;;;;;;;7.09;100.00;99549.63;4908046;29;20127;-38
2022/11/23 08:30:27;;;;;;;20.25;2.83;;;;;;;7.16;100.00;99545.16;4893244;29;20377;-36
2022/11/23 08:32:53;;;;;;;22.80;2.92;;;;;;;7.15;100.00;99548.03;4907943;29;20040;-39
2022/11/23 08:35:18;;;;;;;23.55;3.35;;;;;;;7.28;100.00;99547.31;4909586;29;20032;-36
2022/11/23 08:37:44;;;;;;;24.38;4.03;;;;;;;7.30;100.00;99537.25;4908383;29;20040;-35
2022/11/23 08:40:10;;;;;;;12.55;2.40;;;;;;;7.32;100.00;99533.38;4892825;29;20107;-38
2022/11/23 08:42:35;;;;;;;17.80;2.80;;;;;;;7.38;100.00;99526.41;4909550;29;20155;-36
2022/11/23 08:45:02;;;;;;;18.58;2.47;;;;;;;7.30;100.00;99524.69;4908659;29;20110;-35
2022/11/23 08:47:28;;;;;;;22.80;3.57;;;;;;;7.31;100.00;99522.84;4892209;29;20479;-34
2022/11/23 08:49:53;;;;;;;18.27;2.88;;;;;;;7.33;100.00;99523.50;4906675;29;20076;-36
2022/11/23 08:52:18;;;;;;;23.92;2.90;;;;;;;7.22;100.00;99514.97;4909858;29;20148;-35
2022/11/23 08:54:44;;;;;;;21.05;3.83;;;;;;;7.32;100.00;99506.59;4910206;29;20616;-36
2022/11/23 08:57:09;;;;;;;23.75;2.63;;;;;;;7.42;100.00;99503.56;4907329;29;20055;-36
2022/11/23 08:59:34;;;;;;;20.05;2.95;;;;;;;7.71;100.00;99505.22;4907447;29;20039;-34
2022/11/23 09:01:59;;;;;;;23.50;3.10;;;;;;;8.27;100.00;99493.59;4907960;29;20485;-35
2022/11/23 09:04:26;;;;;;;22.40;3.47;;;;;;;8.79;100.00;99489.41;4905200;29;20492;-37
2022/11/23 09:06:52;;;;;;;20.05;2.97;;;;;;;9.11;100.00;99470.88;4924563;29;20046;-36
2022/11/23 09:09:17;;;;;;;19.10;2.25;;;;;;;9.54;100.00;99452.47;4913277;29;20024;-36
2022/11/23 09:11:43;;;;;;;22.73;2.90;;;;;;;9.75;100.00;99464.84;4896843;29;20040;-36
2022/11/23 09:14:08;;;;;;;13.13;2.83;;;;;;;9.73;100.00;99456.16;4911665;29;20059;-35
2022/11/23 09:16:33;;;;;;;17.05;2.60;;;;;;;9.72;100.00;99448.31;4912904;29;20626;-35
2022/11/23 09:18:59;;;;;;;25.20;3.60;;;;;;;9.79;100.00;99443.75;4911910;29;20337;-35
2022/11/23 09:21:28;;;;;;;31.25;3.30;;;;;;;9.69;99.93;99438.81;4907078;29;20198;-36
2022/11/23 09:23:54;;;;;;;15.93;2.97;;;;;;;9.80;99.87;99440.84;4910994;29;20032;-37
2022/11/23 09:26:19;;;;;;;15.88;2.90;;;;;;;9.76;98.32;99431.56;4901316;29;20036;-35
2022/11/23 09:28:44;;;;;;;20.23;2.90;;;;;;;9.91;97.76;99420.56;4904922;29;20498;-36
2022/11/23 09:31:10;;;;;;;16.83;2.47;;;;;;;10.08;97.96;99420.88;4911739;29;20475;-36
2022/11/23 09:33:35;;;;;;;11.88;2.53;;;;;;;10.39;96.24;99419.34;4906161;29;20688;-34
2022/11/23 09:36:02;;;;;;;23.52;3.25;;;;;;;10.36;94.96;99417.06;4909112;29;20479;-37
2022/11/23 09:38:28;;;;;;;18.15;2.38;;;;;;;10.17;95.04;99424.19;4913412;29;20025;-34
2022/11/23 09:41:27;;;;;;;24.00;2.92;;;;;;;10.16;95.29;99414.44;4908759;29;20408;-35
2022/11/23 09:43:58;;;;;;;23.92;2.85;;;;;;;9.94;96.29;99425.50;4911484;29;20135;-38
2022/11/23 09:46:41;;;;;;;27.05;3.40;;;;;;;9.54;98.41;99422.13;4912276;29;20181;-36
2022/11/23 09:49:08;;;;;;;17.25;2.53;;;;;;;9.54;99.33;99431.00;4910288;29;20286;-35
2022/11/23 09:51:35;;;;;;;21.80;2.70;;;;;;;9.57;99.45;99427.88;4927195;29;20380;-35
2022/11/23 09:54:03;;;;;;;19.17;2.92;;;;;;;9.62;98.10;99427.25;4913417;29;20696;-35
2022/11/23 09:56:31;;;;;;;16.83;2.75;;;;;;;9.99;96.54;99432.94;4912228;29;20035;-38
2022/11/23 09:58:59;;;;;;;19.60;3.72;;;;;;;10.00;96.30;99429.19;4920037;29;20483;-35
2022/11/23 10:01:29;;;;;;;14.25;2.88;;;;;;;9.90;97.19;99440.41;4896581;29;20112;-36
2022/11/23 10:03:55;;;;;;;21.73;3.10;;;;;;;9.61;98.75;99437.19;4914042;29;20740;-35
2022/11/23 10:06:24;;;;;;;12.45;2.60;;;;;;;9.19;100.00;99443.84;4895749;29;20032;-35
2022/11/23 10:09:08;;;;;;;22.20;2.92;;;;;;;8.91;100.00;99452.09;4912598;29;20035;-34
2022/11/23 10:11:48;;;;;;;15.93;3.22;;;;;;;8.56;100.00;99449.56;4913224;29;20381;-34
2022/11/23 10:14:27;;;;;;;17.55;2.63;;;;;;;8.80;100.00;99448.16;4908654;29;20392;-34
2022/11/23 10:17:14;;;;;;;16.90;3.05;;;;;;;8.74;100.00;99444.44;4913800;29;20460;-37
2022/11/23 10:19:52;;;;;;;19.50;2.95;;;;;;;8.72;100.00;99440.31;4922328;29;20036;-37
2022/11/23 10:22:21;;;;;;;;;;;;;;;8.74;100.00;99441.78;4914390;29;20368;-33
2022/11/23 10:24:49;;;;;;;22.23;3.60;;;;;;;8.64;100.00;99452.06;4913658;29;20374;-36
2022/11/23 10:27:20;;;;;;;17.50;4.13;;;;;;;8.08;100.00;99453.09;4896478;29;20039;-34
2022/11/23 10:29:45;;;;;;;23.70;4.40;;;;;;;7.99;100.00;99456.97;4913299;29;20076;-36
2022/11/23 10:32:44;;;;;;;20.02;4.93;;;;;;;7.74;100.00;99463.81;4912784;29;20453;-35
2022/11/23 10:35:24;;;;;;;18.48;5.03;;;;;;;7.65;100.00;99464.00;4880488;29;20079;-34
2022/11/23 10:37:49;;;;;;;15.82;4.53;;;;;;;7.53;100.00;99454.03;4896207;29;20047;-36
2022/11/23 10:40:21;;;;;;;19.13;5.00;;;;;;;7.48;100.00;99447.41;4913274;29;20435;-35
2022/11/23 10:42:52;;;;;;;16.55;5.75;;;;;;;7.62;100.00;99453.69;4896341;29;20032;-34
2022/11/23 10:45:26;;;;;;;18.83;5.93;;;;;;;7.68;100.00;99426.09;4895464;29;20088;-35
2022/11/23 10:47:59;;;;;;;20.40;6.30;;;;;;;7.70;100.00;99424.06;4913574;29;20036;-35
2022/11/23 10:50:36;;;;;;;20.73;5.40;;;;;;;7.68;100.00;99426.09;4912495;29;20040;-34
2022/11/23 10:53:04;;;;;;;26.52;5.40;;;;;;;7.68;100.00;99415.38;4912136;29;20068;-35
2022/11/23 10:55:32;;;;;;;16.52;5.10;;;;;;;7.62;100.00;99420.72;4911255;29;20462;-35
2022/11/23 10:57:57;;;;;;;;;;;;;;;7.64;100.00;99419.50;4932855;29;20135;-35
2022/11/23 11:00:24;;;;;;;20.88;4.35;;;;;;;7.69;100.00;99402.84;4895758;29;20342;-35
2022/11/23 11:02:56;;;;;;;21.38;4.35;;;;;;;7.95;100.00;99393.25;4896229;29;20407;-34
2022/11/23 11:05:27;;;;;;;26.42;4.88;;;;;;;8.09;100.00;99401.16;4912320;29;20049;-35
2022/11/23 11:07:54;;;;;;;14.18;4.15;;;;;;;8.09;100.00;99389.63;4912007;29;20032;-34
2022/11/23 11:11:02;;;;;;;19.35;4.72;;;;;;;8.17;100.00;99394.78;4919528;29;20127;-34
2022/11/23 11:13:29;;;;;;;16.75;3.63;;;;;;;8.19;100.00;99375.81;4872578;29;20052;-35
2022/11/23 11:15:59;;;;;;;14.70;3.83;;;;;;;8.06;100.00;99374.78;4927800;29;20031;-35
2022/11/23 11:18:30;;;;;;;19.65;4.03;;;;;;;8.53;100.00;99367.69;4950372;29;20063;-34
2022/11/23 11:21:05;;;;;;;17.17;4.22;;;;;;;8.63;100.00;99369.94;4916704;29;20052;-34
2022/11/23 11:23:32;;;;;;;18.42;4.43;;;;;;;8.64;100.00;99360.06;4916384;29;20468;-34